Time;durP1;ratioP1;P1;durP2;ratioP2;P2;SDS_P1;SDS_P2;PMS_P1;PMS_P2;Temp;Humidity;BMP_temperature;BMP_pressure;BME280_temperature;BME280_humidity;BME280_pressure;Samples;Min_cycle;Max_cycle;Signal;HPM_P1;HPM_P2
2023/03/27 00:00:28;;;;;;;9.07;1.90;;;1.90;99.90;;;;;;5051814;28;20091;-74
2023/03/27 00:02:57;;;;;;;9.07;2.00;;;1.70;99.90;;;;;;5029557;28;20077;-74
2023/03/27 00:05:23;;;;;;;7.43;2.05;;;1.70;99.90;;;;;;5013103;28;20042;-75
2023/03/27 00:07:54;;;;;;;8.25;2.05;;;1.70;99.90;;;;;;5013352;28;20046;-76
2023/03/27 00:10:21;;;;;;;10.63;2.63;;;1.70;99.90;;;;;;5032690;28;20081;-75
2023/03/27 00:12:47;;;;;;;8.57;2.00;;;1.60;99.90;;;;;;5013086;28;20071;-75
2023/03/27 00:15:15;;;;;;;9.82;2.45;;;1.60;99.90;;;;;;5033476;28;20049;-75
2023/03/27 00:17:46;;;;;;;7.57;1.58;;;1.60;99.90;;;;;;5034979;28;20501;-76
2023/03/27 00:20:14;;;;;;;8.60;1.80;;;1.60;99.90;;;;;;5032717;28;20403;-75
2023/03/27 00:22:40;;;;;;;;;;;1.60;99.90;;;;;;5031834;28;20086;-75
2023/03/27 00:25:06;;;;;;;5.68;1.88;;;1.60;99.90;;;;;;5032908;28;19920;-75
2023/03/27 00:27:32;;;;;;;8.07;1.88;;;1.60;99.90;;;;;;5039016;28;20041;-75
2023/03/27 00:29:57;;;;;;;11.50;2.50;;;1.60;99.90;;;;;;5034633;28;20051;-75
2023/03/27 00:32:25;;;;;;;10.23;1.90;;;1.60;99.90;;;;;;5038125;28;20050;-75
2023/03/27 00:34:51;;;;;;;;;;;1.60;99.90;;;;;;5035069;28;20045;-75
2023/03/27 00:37:17;;;;;;;10.02;1.95;;;1.50;99.90;;;;;;5018666;28;20260;-76
2023/03/27 00:39:42;;;;;;;8.18;1.80;;;1.50;99.90;;;;;;5013024;28;20088;-76
2023/03/27 00:42:12;;;;;;;8.35;1.60;;;1.50;99.90;;;;;;5023985;28;20041;-76
2023/03/27 00:44:38;;;;;;;10.30;2.55;;;1.50;99.90;;;;;;5033323;28;20040;-75
2023/03/27 00:47:07;;;;;;;9.25;2.22;;;1.50;99.90;;;;;;5036472;28;20037;-75
2023/03/27 00:49:35;;;;;;;11.50;2.30;;;1.50;99.90;;;;;;5041523;28;20041;-75
2023/03/27 00:52:02;;;;;;;;;;;1.50;99.90;;;;;;5036656;28;20052;-75
2023/03/27 00:54:31;;;;;;;6.90;1.67;;;1.40;99.90;;;;;;5038136;28;20008;-75
2023/03/27 00:57:04;;;;;;;9.18;1.75;;;1.40;99.90;;;;;;5034890;28;20049;-76
2023/03/27 00:59:33;;;;;;;7.00;1.70;;;1.40;99.90;;;;;;5050192;28;20116;-76
2023/03/27 01:02:01;;;;;;;13.10;2.38;;;1.40;99.90;;;;;;5032421;28;20046;-75
2023/03/27 01:04:27;;;;;;;5.40;1.75;;;1.40;99.90;;;;;;5032399;28;20057;-75
2023/03/27 01:06:55;;;;;;;8.30;2.00;;;1.40;99.90;;;;;;5033611;28;20517;-75
2023/03/27 01:09:21;;;;;;;12.90;1.98;;;1.40;99.90;;;;;;5043503;28;20176;-75
2023/03/27 01:12:11;;;;;;;5.25;1.80;;;1.40;99.90;;;;;;5014421;28;20124;-75
2023/03/27 01:14:45;;;;;;;7.70;2.17;;;1.40;99.90;;;;;;5029303;28;20128;-75
2023/03/27 01:17:36;;;;;;;9.80;2.10;;;1.30;99.90;;;;;;5032095;28;20077;-75
2023/03/27 01:20:13;;;;;;;12.30;2.50;;;1.30;99.90;;;;;;5032617;28;20112;-75
2023/03/27 01:22:59;;;;;;;11.23;2.13;;;1.30;99.90;;;;;;5028703;28;20045;-75
2023/03/27 01:25:58;;;;;;;11.45;2.80;;;1.30;99.90;;;;;;5046898;28;20091;-76
2023/03/27 01:28:57;;;;;;;8.43;2.10;;;1.30;99.90;;;;;;5034126;28;20124;-76
2023/03/27 01:31:54;;;;;;;7.53;2.08;;;1.30;99.90;;;;;;5043638;28;20044;-77
2023/03/27 01:34:44;;;;;;;9.38;1.90;;;1.20;99.90;;;;;;5026589;28;20045;-76
2023/03/27 01:37:52;;;;;;;9.05;1.75;;;1.20;99.90;;;;;;5016275;28;20073;-76
2023/03/27 01:40:24;;;;;;;5.70;1.50;;;1.20;99.90;;;;;;5015705;28;20045;-76
2023/03/27 01:43:02;;;;;;;7.03;1.52;;;1.20;99.90;;;;;;5043992;28;20049;-76
2023/03/27 01:45:36;;;;;;;10.65;1.75;;;1.20;99.90;;;;;;5035685;28;20049;-76
2023/03/27 01:48:14;;;;;;;9.52;1.95;;;1.20;99.90;;;;;;5035758;28;20057;-76
2023/03/27 01:50:39;;;;;;;;;;;1.10;99.90;;;;;;5034741;28;20045;-76
2023/03/27 01:53:19;;;;;;;5.97;1.77;;;1.10;99.90;;;;;;5026880;28;20302;-76
2023/03/27 01:55:50;;;;;;;7.10;1.48;;;1.10;99.90;;;;;;5055551;28;20037;-76
2023/03/27 01:58:20;;;;;;;8.10;1.77;;;1.10;99.90;;;;;;5035341;28;20037;-76
2023/03/27 02:00:51;;;;;;;5.32;1.20;;;1.10;99.90;;;;;;5034306;28;20045;-75
2023/03/27 02:03:32;;;;;;;7.75;1.73;;;1.10;99.90;;;;;;5013872;28;20057;-77
2023/03/27 02:06:09;;;;;;;9.30;1.70;;;1.10;99.90;;;;;;5034120;28;20068;-77
2023/03/27 02:08:40;;;;;;;9.82;1.98;;;1.00;99.90;;;;;;5032514;28;20054;-77
2023/03/27 02:11:06;;;;;;;9.98;1.85;;;1.00;99.90;;;;;;5011941;28;20041;-76
2023/03/27 02:13:49;;;;;;;7.32;1.75;;;1.00;99.90;;;;;;5033723;28;20044;-76
2023/03/27 02:16:19;;;;;;;7.93;1.65;;;1.00;99.90;;;;;;5033648;28;20045;-75
2023/03/27 02:18:55;;;;;;;11.35;1.70;;;1.00;99.90;;;;;;5015883;28;20076;-75
2023/03/27 02:21:22;;;;;;;10.15;2.55;;;1.00;99.90;;;;;;5015546;28;20045;-75
2023/03/27 02:23:48;;;;;;;6.95;1.58;;;1.00;99.90;;;;;;5048045;28;20048;-75
2023/03/27 02:26:14;;;;;;;10.68;2.05;;;1.00;99.90;;;;;;5041234;28;20041;-75
2023/03/27 02:29:25;;;;;;;6.85;1.65;;;1.00;99.90;;;;;;5045278;28;20048;-75
2023/03/27 02:32:11;;;;;;;4.25;1.30;;;1.00;99.90;;;;;;5029696;28;20056;-76
2023/03/27 02:34:58;;;;;;;7.68;1.80;;;1.00;99.90;;;;;;5026688;28;20081;-76
2023/03/27 02:37:27;;;;;;;8.60;1.47;;;1.00;99.90;;;;;;5031043;28;20046;-76
2023/03/27 02:40:33;;;;;;;6.97;1.60;;;0.90;99.90;;;;;;5035331;28;20068;-76
2023/03/27 02:43:01;;;;;;;10.77;2.28;;;0.90;99.90;;;;;;5038886;28;20084;-76
2023/03/27 02:46:06;;;;;;;5.70;1.75;;;0.90;99.90;;;;;;5024566;28;20038;-77
2023/03/27 02:48:35;;;;;;;9.23;1.90;;;0.90;99.90;;;;;;5044271;28;20048;-76
2023/03/27 02:51:12;;;;;;;5.25;1.63;;;0.90;99.90;;;;;;5041034;28;20048;-76
2023/03/27 02:53:48;;;;;;;6.72;1.73;;;0.90;99.90;;;;;;5040320;28;20040;-76
2023/03/27 02:56:15;;;;;;;8.20;1.80;;;0.80;99.90;;;;;;5045063;28;20052;-76
2023/03/27 02:58:44;;;;;;;6.95;1.30;;;0.90;99.90;;;;;;5043919;28;20049;-76
2023/03/27 03:01:15;;;;;;;5.15;1.63;;;0.80;99.90;;;;;;5040147;28;20094;-75
2023/03/27 03:03:52;;;;;;;7.13;1.80;;;0.80;99.90;;;;;;5046144;28;20053;-74
2023/03/27 03:06:20;;;;;;;10.02;1.95;;;0.90;99.90;;;;;;5040936;28;20449;-74
2023/03/27 03:08:46;;;;;;;9.45;2.08;;;0.90;99.90;;;;;;5016887;28;20037;-75
2023/03/27 03:11:13;;;;;;;11.82;1.85;;;1.00;99.90;;;;;;5035492;28;20133;-75
2023/03/27 03:13:40;;;;;;;8.50;1.70;;;1.00;99.90;;;;;;5036769;28;20076;-75
2023/03/27 03:16:07;;;;;;;5.57;1.55;;;1.00;99.90;;;;;;5038800;28;20164;-75
2023/03/27 03:18:33;;;;;;;11.77;1.90;;;1.00;99.90;;;;;;5032740;28;20491;-75
2023/03/27 03:20:59;;;;;;;8.15;1.73;;;1.10;99.90;;;;;;5036824;28;20407;-75
2023/03/27 03:23:25;;;;;;;7.68;2.03;;;1.10;99.90;;;;;;5003796;28;20468;-75
2023/03/27 03:25:55;;;;;;;8.32;2.10;;;1.10;99.90;;;;;;5036485;28;20045;-75
2023/03/27 03:28:22;;;;;;;8.68;1.70;;;1.10;99.90;;;;;;5040533;28;20052;-75
2023/03/27 03:30:49;;;;;;;8.75;2.08;;;1.10;99.90;;;;;;5015178;28;20070;-76
2023/03/27 03:33:16;;;;;;;6.15;1.67;;;1.20;99.90;;;;;;5044887;28;20091;-76
2023/03/27 03:35:45;;;;;;;8.77;1.70;;;1.10;99.90;;;;;;5045428;28;20514;-76
2023/03/27 03:38:11;;;;;;;6.30;1.77;;;1.10;99.90;;;;;;5020332;28;20045;-76
2023/03/27 03:40:37;;;;;;;9.15;1.63;;;1.10;99.90;;;;;;5032742;28;20040;-77
2023/03/27 03:43:02;;;;;;;10.32;1.73;;;1.10;99.90;;;;;;5027588;28;20037;-75
2023/03/27 03:45:28;;;;;;;8.60;1.30;;;1.10;99.90;;;;;;5023622;28;20148;-75
2023/03/27 03:47:53;;;;;;;8.43;1.92;;;1.10;99.90;;;;;;5036261;28;20048;-75
2023/03/27 03:50:19;;;;;;;5.38;1.42;;;1.10;99.90;;;;;;5036359;28;20129;-75
2023/03/27 03:52:45;;;;;;;6.93;1.60;;;1.00;99.90;;;;;;5032948;28;20045;-75
2023/03/27 03:55:11;;;;;;;8.15;1.23;;;1.10;99.90;;;;;;5050536;28;20540;-75
2023/03/27 03:57:37;;;;;;;6.85;1.40;;;1.10;99.90;;;;;;5028941;28;20128;-75
2023/03/27 04:00:07;;;;;;;5.78;1.88;;;1.10;99.90;;;;;;5030629;28;20040;-75
2023/03/27 04:02:35;;;;;;;4.85;1.48;;;1.20;99.90;;;;;;5028856;28;20041;-75
2023/03/27 04:05:03;;;;;;;7.63;2.00;;;;;;;;;;5029535;28;20065;-76
2023/03/27 04:07:34;;;;;;;8.20;1.67;;;1.20;99.90;;;;;;5025416;28;20491;-75
2023/03/27 04:10:01;;;;;;;6.20;1.52;;;1.30;99.90;;;;;;5032532;28;20152;-75
2023/03/27 04:12:27;;;;;;;6.38;1.52;;;1.30;99.90;;;;;;5031024;28;20116;-76
2023/03/27 04:14:54;;;;;;;5.18;1.23;;;1.40;99.90;;;;;;5032892;28;20168;-75
2023/03/27 04:17:20;;;;;;;9.88;1.60;;;1.40;99.90;;;;;;5025360;28;20148;-76
2023/03/27 04:19:45;;;;;;;9.20;1.60;;;1.50;99.90;;;;;;5030669;28;20442;-75
2023/03/27 04:22:12;;;;;;;10.55;1.40;;;1.50;99.90;;;;;;5026457;28;20045;-75
2023/03/27 04:24:38;;;;;;;5.30;1.10;;;1.40;99.90;;;;;;5015105;28;20403;-76
2023/03/27 04:27:04;;;;;;;5.05;1.20;;;1.40;99.90;;;;;;5030225;28;20116;-76
2023/03/27 04:29:30;;;;;;;5.80;1.25;;;1.40;99.90;;;;;;5030096;28;20121;-75
2023/03/27 04:31:56;;;;;;;5.28;1.55;;;1.40;99.90;;;;;;5029953;28;20060;-76
2023/03/27 04:34:23;;;;;;;9.60;1.70;;;1.30;99.90;;;;;;5030717;28;20448;-76
2023/03/27 04:36:49;;;;;;;8.15;1.60;;;1.30;99.90;;;;;;5029730;28;20454;-76
2023/03/27 04:39:19;;;;;;;3.95;1.60;;;1.20;99.90;;;;;;5024999;28;20046;-76
2023/03/27 04:41:48;;;;;;;5.22;1.30;;;1.20;99.90;;;;;;5026161;28;20483;-76
2023/03/27 04:44:16;;;;;;;;;;;1.20;99.90;;;;;;5029244;28;20516;-76
2023/03/27 04:46:43;;;;;;;7.35;1.50;;;1.20;99.90;;;;;;5030770;28;19944;-76
2023/03/27 04:49:09;;;;;;;7.57;1.38;;;1.20;99.90;;;;;;5030056;28;20045;-75
2023/03/27 04:51:35;;;;;;;3.35;1.30;;;1.10;99.90;;;;;;5029713;28;20042;-76
2023/03/27 04:54:03;;;;;;;6.03;1.50;;;1.10;99.90;;;;;;5017291;28;20045;-75
2023/03/27 04:56:30;;;;;;;3.42;1.30;;;1.10;99.90;;;;;;4993640;28;20048;-75
2023/03/27 04:58:55;;;;;;;5.38;1.30;;;1.10;99.90;;;;;;5012301;28;20099;-75
2023/03/27 05:01:21;;;;;;;6.28;1.88;;;1.10;99.90;;;;;;5027549;28;20128;-76
2023/03/27 05:03:48;;;;;;;7.10;1.60;;;1.10;99.90;;;;;;5028909;28;20464;-75
2023/03/27 05:06:14;;;;;;;5.10;1.30;;;1.10;99.90;;;;;;5010986;28;20073;-77
2023/03/27 05:08:40;;;;;;;7.03;1.70;;;1.10;99.90;;;;;;5011375;28;20076;-77
2023/03/27 05:11:06;;;;;;;5.43;1.50;;;1.10;99.90;;;;;;5022268;28;20045;-77
2023/03/27 05:13:32;;;;;;;8.95;1.75;;;1.00;99.90;;;;;;5038209;28;20064;-77
2023/03/27 05:16:00;;;;;;;6.43;1.65;;;1.10;99.90;;;;;;5030614;28;20418;-77
2023/03/27 05:18:29;;;;;;;4.45;1.20;;;1.10;99.90;;;;;;5033816;28;20041;-76
2023/03/27 05:20:58;;;;;;;4.47;1.40;;;1.10;99.90;;;;;;5029952;28;20045;-76
2023/03/27 05:23:27;;;;;;;8.60;1.58;;;1.10;99.90;;;;;;5032323;28;20041;-76
2023/03/27 05:25:55;;;;;;;9.27;1.45;;;1.10;99.90;;;;;;5029476;28;20045;-76
2023/03/27 05:28:21;;;;;;;5.10;1.60;;;1.10;99.90;;;;;;5031792;28;20045;-76
2023/03/27 05:30:48;;;;;;;8.25;1.70;;;1.10;99.90;;;;;;5023564;28;20353;-77
2023/03/27 05:33:15;;;;;;;6.80;1.85;;;1.10;99.90;;;;;;5024688;28;20045;-76
2023/03/27 05:35:41;;;;;;;7.45;1.70;;;1.10;99.90;;;;;;5029569;28;20103;-77
2023/03/27 05:38:07;;;;;;;7.68;1.75;;;1.10;99.90;;;;;;5029955;28;20038;-75
2023/03/27 05:40:33;;;;;;;7.68;1.88;;;1.10;99.90;;;;;;5027832;28;20365;-76
2023/03/27 05:42:59;;;;;;;5.90;1.80;;;1.10;99.90;;;;;;5036686;28;20049;-76
2023/03/27 05:45:25;;;;;;;11.68;1.83;;;1.20;99.90;;;;;;5021915;28;20041;-75
2023/03/27 05:47:56;;;;;;;10.45;2.03;;;1.20;99.90;;;;;;5031720;28;20048;-75
2023/03/27 05:50:25;;;;;;;9.20;1.80;;;1.20;99.90;;;;;;5030345;28;20037;-75
2023/03/27 05:52:59;;;;;;;7.78;1.77;;;1.30;99.90;;;;;;5028846;28;20056;-76
2023/03/27 05:55:26;;;;;;;9.05;2.03;;;1.30;99.90;;;;;;5026671;28;21987;-76
2023/03/27 05:57:52;;;;;;;5.80;1.80;;;1.30;99.90;;;;;;4994443;28;20060;-76
2023/03/27 06:00:23;;;;;;;9.05;2.00;;;1.40;99.90;;;;;;5028713;28;20044;-75
2023/03/27 06:02:52;;;;;;;5.25;1.90;;;1.40;99.90;;;;;;5028950;28;20049;-75
2023/03/27 06:05:18;;;;;;;7.65;2.00;;;1.50;99.90;;;;;;5031860;28;20124;-76
2023/03/27 06:07:45;;;;;;;8.75;1.95;;;1.50;99.90;;;;;;5031861;28;20038;-77
2023/03/27 06:10:15;;;;;;;9.85;2.20;;;1.60;99.90;;;;;;5029518;28;20081;-77
2023/03/27 06:12:43;;;;;;;8.32;2.10;;;1.70;99.90;;;;;;5028409;28;20045;-76
2023/03/27 06:15:14;;;;;;;8.07;2.17;;;3.10;99.90;;;;;;5015934;28;20503;-76
2023/03/27 06:17:41;;;;;;;8.18;2.47;;;2.50;99.90;;;;;;5045554;28;20467;-77
2023/03/27 06:20:10;;;;;;;6.43;2.10;;;4.10;99.90;;;;;;5036782;28;20038;-76
2023/03/27 06:22:45;;;;;;;9.82;2.00;;;5.00;99.90;;;;;;5031892;28;20049;-77
2023/03/27 06:25:12;;;;;;;7.40;1.92;;;;;;;;;;5034022;28;20074;-77
2023/03/27 06:27:39;;;;;;;9.27;2.40;;;5.60;99.90;;;;;;5033932;28;20033;-76
2023/03/27 06:30:06;;;;;;;9.70;2.17;;;6.10;99.90;;;;;;5034064;28;20045;-77
2023/03/27 06:32:33;;;;;;;6.60;2.03;;;;;;;;;;5034409;28;20120;-76
2023/03/27 06:34:58;;;;;;;8.25;2.10;;;7.10;99.90;;;;;;5020837;28;20057;-76
2023/03/27 06:37:24;;;;;;;7.18;2.35;;;7.70;99.90;;;;;;5054686;28;20053;-76
2023/03/27 06:39:49;;;;;;;6.78;2.22;;;7.70;99.90;;;;;;5032061;28;20049;-75
2023/03/27 06:42:16;;;;;;;6.00;1.90;;;7.80;99.90;;;;;;5038720;28;20076;-77
2023/03/27 06:44:42;;;;;;;4.53;1.60;;;;;;;;;;5054955;28;20049;-75
2023/03/27 06:47:08;;;;;;;11.57;2.03;;;8.10;99.90;;;;;;5044070;28;20094;-76
2023/03/27 06:49:34;;;;;;;8.65;2.75;;;8.60;99.90;;;;;;5028902;28;20060;-75
2023/03/27 06:52:00;;;;;;;7.50;1.95;;;;;;;;;;5034444;28;20037;-75
2023/03/27 06:54:27;;;;;;;8.55;2.17;;;7.70;99.90;;;;;;5025205;28;20045;-76
2023/03/27 06:56:52;;;;;;;6.85;1.92;;;6.90;99.90;;;;;;5009771;28;20087;-75
2023/03/27 06:59:18;;;;;;;9.77;2.00;;;6.10;99.90;;;;;;5049627;28;20133;-75
2023/03/27 07:01:44;;;;;;;7.65;2.03;;;6.30;99.90;;;;;;5041338;28;20045;-75
2023/03/27 07:04:11;;;;;;;8.07;2.55;;;;;;;;;;5046345;28;20053;-77
2023/03/27 07:06:36;;;;;;;7.47;2.05;;;7.40;99.90;;;;;;5042078;28;20083;-76
2023/03/27 07:09:02;;;;;;;7.07;1.70;;;7.40;99.90;;;;;;5042551;28;20040;-77
2023/03/27 07:11:28;;;;;;;8.40;1.70;;;7.00;99.90;;;;;;5039617;28;20116;-77
2023/03/27 07:13:54;;;;;;;6.55;1.60;;;6.60;99.90;;;;;;5039510;28;20038;-77
2023/03/27 07:16:20;;;;;;;5.90;1.70;;;5.80;99.90;;;;;;5046684;28;20092;-77
2023/03/27 07:18:45;;;;;;;3.85;0.95;;;5.50;99.90;;;;;;5048545;28;20472;-77
2023/03/27 07:21:14;;;;;;;4.47;1.27;;;5.40;99.90;;;;;;5036673;28;20041;-77
2023/03/27 07:23:40;;;;;;;3.67;1.10;;;5.30;99.90;;;;;;5033723;28;20037;-77
2023/03/27 07:26:06;;;;;;;4.88;1.45;;;5.20;99.90;;;;;;5033834;28;20069;-77
2023/03/27 07:28:31;;;;;;;10.02;1.55;;;5.10;99.90;;;;;;5035223;28;20459;-77
2023/03/27 07:30:57;;;;;;;7.53;1.30;;;5.20;99.90;;;;;;5033497;28;20183;-77
2023/03/27 07:33:23;;;;;;;7.15;1.40;;;5.20;99.90;;;;;;5035819;28;20046;-77
2023/03/27 07:35:48;;;;;;;7.93;1.40;;;5.20;99.90;;;;;;5033040;28;20505;-77
2023/03/27 07:38:16;;;;;;;4.03;1.30;;;5.20;99.90;;;;;;5017123;28;20045;-77
2023/03/27 07:40:45;;;;;;;5.25;1.10;;;5.30;99.90;;;;;;4999477;28;20041;-77
2023/03/27 07:43:11;;;;;;;9.15;1.75;;;5.40;99.90;;;;;;5033332;28;20095;-77
2023/03/27 07:45:37;;;;;;;4.93;1.50;;;5.50;99.90;;;;;;4996812;28;20513;-77
2023/03/27 07:48:08;;;;;;;5.00;1.20;;;5.40;99.90;;;;;;5047404;28;20045;-77
2023/03/27 07:50:34;;;;;;;3.75;1.30;;;5.40;99.90;;;;;;5036565;28;20037;-77
2023/03/27 07:53:00;;;;;;;5.15;1.20;;;5.50;99.90;;;;;;5038760;28;20037;-77
2023/03/27 07:55:28;;;;;;;6.32;1.65;;;5.50;99.90;;;;;;5046077;28;20044;-77
2023/03/27 07:57:54;;;;;;;7.22;1.88;;;5.50;99.90;;;;;;5042790;28;20525;-77
2023/03/27 08:00:21;;;;;;;4.78;1.63;;;5.60;99.90;;;;;;5016062;28;20183;-77
2023/03/27 08:02:50;;;;;;;4.63;1.40;;;5.70;99.90;;;;;;5012097;28;20044;-77
2023/03/27 08:05:17;;;;;;;6.47;1.50;;;5.90;99.90;;;;;;5014268;28;20057;-77
2023/03/27 08:07:46;;;;;;;5.18;1.88;;;5.90;99.90;;;;;;5018295;28;20058;-77
2023/03/27 08:10:14;;;;;;;9.63;1.65;;;6.10;99.90;;;;;;5012966;28;20411;-77
2023/03/27 08:12:41;;;;;;;5.90;1.63;;;6.10;99.90;;;;;;5031219;28;20050;-77
2023/03/27 08:15:08;;;;;;;6.88;1.70;;;6.20;99.90;;;;;;4993291;28;20034;-77
2023/03/27 08:17:34;;;;;;;6.47;1.35;;;6.30;99.90;;;;;;5029291;28;20556;-77
2023/03/27 08:20:08;;;;;;;6.30;1.52;;;6.40;99.90;;;;;;5033223;28;20056;-78
2023/03/27 08:22:35;;;;;;;8.85;1.40;;;6.50;99.90;;;;;;5028110;28;20053;-77
2023/03/27 08:25:03;;;;;;;10.45;1.75;;;6.50;99.90;;;;;;5026488;28;20033;-76
2023/03/27 08:27:30;;;;;;;4.35;1.45;;;6.60;99.90;;;;;;5034004;28;20049;-76
2023/03/27 08:29:57;;;;;;;5.77;1.50;;;6.70;99.90;;;;;;5038412;28;20530;-78
2023/03/27 08:32:22;;;;;;;6.45;1.15;;;6.80;99.90;;;;;;5036773;28;20048;-77
2023/03/27 08:34:48;;;;;;;7.80;1.55;;;7.00;99.90;;;;;;5036382;28;20500;-77
2023/03/27 08:37:14;;;;;;;10.63;1.58;;;7.30;99.90;;;;;;5039013;28;20402;-78
2023/03/27 08:39:39;;;;;;;9.05;1.40;;;7.40;99.90;;;;;;5035705;28;20139;-77
2023/03/27 08:42:07;;;;;;;9.05;1.30;;;7.50;99.90;;;;;;5028231;28;20080;-77
2023/03/27 08:44:35;;;;;;;7.30;1.35;;;7.70;99.90;;;;;;5037852;28;20056;-77
2023/03/27 08:47:10;;;;;;;4.65;1.20;;;7.50;99.90;;;;;;5021153;28;20046;-77
2023/03/27 08:49:43;;;;;;;1.75;0.95;;;7.20;99.90;;;;;;5020129;28;20041;-76
2023/03/27 08:52:21;;;;;;;5.28;1.17;;;6.00;99.90;;;;;;5029073;28;20049;-74
2023/03/27 08:54:58;;;;;;;4.07;1.15;;;5.10;99.90;;;;;;5015541;28;20037;-75
2023/03/27 08:57:30;;;;;;;7.13;1.50;;;4.60;99.90;;;;;;5030196;28;20056;-76
2023/03/27 08:59:59;;;;;;;7.15;1.40;;;4.30;99.90;;;;;;4995081;28;20053;-76
2023/03/27 09:02:44;;;;;;;7.72;2.70;;;4.10;99.90;;;;;;4995233;28;20046;-76
2023/03/27 09:05:41;;;;;;;8.00;2.30;;;3.90;99.90;;;;;;5016621;28;20160;-76
2023/03/27 09:08:23;;;;;;;9.13;2.90;;;3.90;99.90;;;;;;5041515;28;20052;-76
2023/03/27 09:11:04;;;;;;;7.43;2.53;;;4.10;99.90;;;;;;5053238;28;20053;-76
2023/03/27 09:13:50;;;;;;;7.20;2.30;;;4.50;99.90;;;;;;5007021;28;20045;-76
2023/03/27 09:16:47;;;;;;;6.03;1.50;;;4.80;99.90;;;;;;5014617;28;20041;-76
2023/03/27 09:19:35;;;;;;;6.70;1.58;;;5.10;99.90;;;;;;5032634;28;20048;-76
2023/03/27 09:22:10;;;;;;;5.55;1.48;;;5.30;99.90;;;;;;5030456;28;20117;-76
2023/03/27 09:24:42;;;;;;;8.52;2.08;;;5.60;99.90;;;;;;5036990;28;20114;-76
2023/03/27 09:27:19;;;;;;;7.10;1.42;;;5.80;99.90;;;;;;5034395;28;20057;-76
2023/03/27 09:29:55;;;;;;;7.05;1.70;;;6.00;99.90;;;;;;5052489;28;20082;-76
2023/03/27 09:32:21;;;;;;;7.57;2.00;;;6.30;99.90;;;;;;5030800;28;20055;-76
2023/03/27 09:34:46;;;;;;;3.45;1.15;;;6.70;99.90;;;;;;5031749;28;20042;-76
2023/03/27 09:37:15;;;;;;;8.18;2.05;;;6.80;99.90;;;;;;5032280;28;20091;-76
2023/03/27 09:39:45;;;;;;;5.82;1.27;;;6.90;99.90;;;;;;5034296;28;20549;-76
2023/03/27 09:42:22;;;;;;;8.70;1.77;;;6.80;99.90;;;;;;5032579;28;20041;-76
2023/03/27 09:44:55;;;;;;;4.97;1.50;;;6.60;99.90;;;;;;5012701;28;20121;-76
2023/03/27 09:47:31;;;;;;;3.58;1.23;;;6.60;99.90;;;;;;5012366;28;20492;-76
2023/03/27 09:50:12;;;;;;;6.10;1.10;;;6.30;99.90;;;;;;5016822;28;20042;-76
2023/03/27 09:52:39;;;;;;;5.32;0.98;;;6.00;99.90;;;;;;5032388;28;20087;-76
2023/03/27 09:55:29;;;;;;;3.87;0.93;;;5.50;99.90;;;;;;5021907;28;20128;-77
2023/03/27 09:58:19;;;;;;;3.25;0.75;;;5.20;99.90;;;;;;5033290;28;20053;-76
2023/03/27 10:00:45;;;;;;;2.00;0.88;;;5.10;99.90;;;;;;5007345;28;20045;-76
2023/03/27 10:03:19;;;;;;;3.25;0.82;;;5.40;99.90;;;;;;5043225;28;20056;-76
2023/03/27 10:05:45;;;;;;;2.15;0.73;;;5.60;99.90;;;;;;5055840;28;20045;-76
2023/03/27 10:08:23;;;;;;;2.22;0.88;;;5.80;99.90;;;;;;5038198;28;20383;-77
2023/03/27 10:10:57;;;;;;;3.30;0.80;;;5.90;99.90;;;;;;5031682;28;20045;-77
2023/03/27 10:13:28;;;;;;;3.17;0.60;;;6.10;99.90;;;;;;5035668;28;20068;-77
2023/03/27 10:16:04;;;;;;;3.03;0.70;;;6.20;99.90;;;;;;5040491;28;20052;-77
2023/03/27 10:18:33;;;;;;;2.55;0.70;;;6.40;99.90;;;;;;5033016;28;20095;-77
2023/03/27 10:21:05;;;;;;;4.65;0.60;;;6.50;99.90;;;;;;5048229;28;20038;-77
2023/03/27 10:23:48;;;;;;;2.85;0.75;;;6.70;99.90;;;;;;5034513;28;20403;-77
2023/03/27 10:26:19;;;;;;;3.17;0.85;;;6.90;99.90;;;;;;5028687;28;20045;-76
2023/03/27 10:28:50;;;;;;;2.67;0.75;;;7.20;99.90;;;;;;5034899;28;20042;-76
2023/03/27 10:31:32;;;;;;;2.95;1.08;;;7.30;99.90;;;;;;5032513;28;20042;-76
2023/03/27 10:34:03;;;;;;;4.43;0.70;;;7.30;99.90;;;;;;5035296;28;20172;-76
2023/03/27 10:36:33;;;;;;;3.95;1.15;;;7.60;99.90;;;;;;5033768;28;20044;-76
2023/03/27 10:39:10;;;;;;;1.10;0.60;;;8.00;99.90;;;;;;5017421;28;20041;-76
2023/03/27 10:41:37;;;;;;;3.95;0.95;;;8.20;99.90;;;;;;5017191;28;20057;-76
2023/03/27 10:44:17;;;;;;;4.93;1.08;;;8.40;99.90;;;;;;5033976;28;20045;-77
2023/03/27 10:46:43;;;;;;;6.43;1.00;;;8.40;99.90;;;;;;5047330;28;20057;-76
2023/03/27 10:49:09;;;;;;;3.85;1.15;;;8.50;99.90;;;;;;5034339;28;20045;-76
2023/03/27 10:51:56;;;;;;;3.20;0.85;;;8.40;99.90;;;;;;5035085;28;20038;-76
2023/03/27 10:54:42;;;;;;;5.05;1.33;;;8.00;99.90;;;;;;5031635;28;20522;-76
2023/03/27 10:57:18;;;;;;;3.38;1.08;;;8.10;99.90;;;;;;5016820;28;20061;-77
2023/03/27 10:59:50;;;;;;;5.68;1.27;;;8.40;99.90;;;;;;5033013;28;20566;-77
2023/03/27 11:02:22;;;;;;;4.25;1.42;;;8.70;99.90;;;;;;5054745;28;20049;-77
2023/03/27 11:04:53;;;;;;;3.13;1.20;;;8.80;99.90;;;;;;5044800;28;20064;-77
2023/03/27 11:07:36;;;;;;;4.43;1.15;;;8.80;99.90;;;;;;5033212;28;20045;-77
2023/03/27 11:10:18;;;;;;;4.22;1.30;;;8.70;99.90;;;;;;5033351;28;20484;-77
2023/03/27 11:12:54;;;;;;;4.35;1.27;;;8.20;99.90;;;;;;5038951;28;20045;-76
2023/03/27 11:15:27;;;;;;;4.40;1.30;;;7.90;99.90;;;;;;5016652;28;20038;-77
2023/03/27 11:18:01;;;;;;;5.63;1.55;;;7.80;99.90;;;;;;5031883;28;20083;-77
2023/03/27 11:20:39;;;;;;;4.38;1.30;;;7.90;99.90;;;;;;5034363;28;20107;-77
2023/03/27 11:23:31;;;;;;;5.60;1.30;;;8.50;99.90;;;;;;5033021;28;20080;-77
2023/03/27 11:26:01;;;;;;;5.78;1.40;;;8.60;99.90;;;;;;4999554;28;20084;-76
2023/03/27 11:28:55;;;;;;;4.95;1.65;;;8.60;99.90;;;;;;5012017;28;20065;-76
2023/03/27 11:31:37;;;;;;;4.30;1.40;;;8.50;99.90;;;;;;4995882;28;20061;-76
2023/03/27 11:34:16;;;;;;;2.97;0.98;;;8.70;99.90;;;;;;4992470;28;20054;-76
2023/03/27 11:36:44;;;;;;;5.65;1.52;;;8.90;99.90;;;;;;4992620;28;20506;-76
2023/03/27 11:39:22;;;;;;;3.97;1.00;;;9.00;99.90;;;;;;4990928;28;20035;-76
2023/03/27 11:41:57;;;;;;;2.63;1.40;;;9.00;99.90;;;;;;5007528;28;20125;-76
2023/03/27 11:44:25;;;;;;;10.13;2.22;;;9.10;99.90;;;;;;4990809;28;20522;-76
2023/03/27 11:47:11;;;;;;;4.75;1.60;;;9.40;99.90;;;;;;4992117;28;20038;-76
2023/03/27 11:49:55;;;;;;;7.07;1.45;;;9.30;99.90;;;;;;4972796;28;20493;-76
2023/03/27 11:52:46;;;;;;;7.47;1.75;;;9.30;99.90;;;;;;4975250;28;20488;-77
2023/03/27 11:55:30;;;;;;;5.15;1.40;;;9.50;99.90;;;;;;4992019;28;20050;-77
2023/03/27 11:58:10;;;;;;;5.47;1.52;;;9.70;99.90;;;;;;5001246;28;20069;-77
2023/03/27 12:00:53;;;;;;;3.28;1.73;;;9.50;99.90;;;;;;4975710;28;20060;-77
2023/03/27 12:03:21;;;;;;;7.07;1.30;;;9.70;99.90;;;;;;4989829;28;20084;-77
2023/03/27 12:06:08;;;;;;;3.63;0.98;;;9.60;99.90;;;;;;5032606;28;20065;-76
2023/03/27 12:08:49;;;;;;;3.33;1.30;;;9.40;99.90;;;;;;5033580;28;20041;-76
2023/03/27 12:11:17;;;;;;;3.38;1.10;;;9.50;99.90;;;;;;5027292;28;20053;-76
2023/03/27 12:14:14;;;;;;;6.90;1.40;;;9.30;99.90;;;;;;5001777;28;20136;-76
2023/03/27 12:17:06;;;;;;;3.50;0.90;;;8.80;99.90;;;;;;5032098;28;20184;-76
2023/03/27 12:19:41;;;;;;;1.88;0.63;;;8.30;99.90;;;;;;5029576;28;20104;-76
2023/03/27 12:22:25;;;;;;;2.78;0.60;;;7.20;99.90;;;;;;5034788;28;20077;-76
2023/03/27 12:25:28;;;;;;;1.98;0.73;;;6.60;99.90;;;;;;5049655;28;20081;-76
2023/03/27 12:28:00;;;;;;;1.45;1.00;;;6.70;99.90;;;;;;5032930;28;20451;-76
2023/03/27 12:30:46;;;;;;;4.20;0.90;;;7.00;99.90;;;;;;5033082;28;20122;-77
2023/03/27 12:33:47;;;;;;;1.88;0.80;;;7.30;99.90;;;;;;5032859;28;20071;-77
2023/03/27 12:36:16;;;;;;;3.03;0.82;;;7.60;99.90;;;;;;5013645;28;20075;-77
2023/03/27 12:38:43;;;;;;;4.35;1.00;;;7.70;99.90;;;;;;5032810;28;20049;-77
2023/03/27 12:41:14;;;;;;;2.80;1.23;;;8.00;99.90;;;;;;5014865;28;20045;-77
2023/03/27 12:43:45;;;;;;;3.75;0.80;;;8.20;99.90;;;;;;5014902;28;20049;-78
2023/03/27 12:46:22;;;;;;;3.83;0.85;;;8.40;99.90;;;;;;4997522;28;20041;-78
2023/03/27 12:48:53;;;;;;;2.33;0.70;;;8.80;99.90;;;;;;5013905;28;20118;-77
2023/03/27 12:51:33;;;;;;;4.05;1.13;;;9.00;99.90;;;;;;5038909;28;20491;-77
2023/03/27 12:54:30;;;;;;;1.63;0.93;;;9.10;99.90;;;;;;5052506;28;20044;-77
2023/03/27 12:57:19;;;;;;;5.53;1.40;;;8.40;99.90;;;;;;5012886;28;20049;-76
2023/03/27 12:59:47;;;;;;;1.73;0.70;;;6.90;99.90;;;;;;5012443;28;20121;-77
2023/03/27 13:02:36;;;;;;;3.65;0.52;;;6.20;99.90;;;;;;5026490;28;20041;-77
2023/03/27 13:05:33;;;;;;;2.38;0.80;;;6.30;99.90;;;;;;5027468;28;20092;-76
2023/03/27 13:08:40;;;;;;;4.50;1.20;;;6.50;99.90;;;;;;5010341;28;20399;-76
2023/03/27 13:11:41;;;;;;;3.75;0.73;;;6.80;99.90;;;;;;4950589;29;20760;-77
2023/03/27 13:14:16;;;;;;;3.97;1.00;;;7.10;99.90;;;;;;4952348;29;20058;-77
2023/03/27 13:17:14;;;;;;;6.32;2.03;;;7.40;99.90;;;;;;4951428;28;20039;-77
2023/03/27 13:20:08;;;;;;;5.88;1.10;;;7.60;99.90;;;;;;4951686;28;20367;-77
2023/03/27 13:22:55;;;;;;;3.03;1.13;;;7.60;99.90;;;;;;4946917;28;20094;-77
2023/03/27 13:25:29;;;;;;;6.03;1.17;;;7.70;99.90;;;;;;4936812;29;20056;-77
2023/03/27 13:28:03;;;;;;;5.75;1.15;;;8.30;99.90;;;;;;4937155;29;20051;-77